Time;durP1;ratioP1;P1;durP2;ratioP2;P2;SDS_P1;SDS_P2;PMS_P1;PMS_P2;Temp;Humidity;BMP_temperature;BMP_pressure;BME280_temperature;BME280_humidity;BME280_pressure;Samples;Min_cycle;Max_cycle;Signal;HPM_P1;HPM_P2
2021/01/06 00:01:26;;;;;;;93.05;49.88;;;179.70;2022.40;;;;;;5052643;28;20053;-83
2021/01/06 00:03:52;;;;;;;67.55;39.70;;;179.30;2048.00;;;;;;5053407;28;20116;-86
2021/01/06 00:06:25;;;;;;;69.85;41.97;;;179.20;2022.40;;;;;;5071185;28;20116;-84
2021/01/06 00:08:50;;;;;;;67.57;39.63;;;179.40;1996.80;;;;;;5053586;28;20025;-85
2021/01/06 00:11:17;;;;;;;124.53;54.03;;;179.40;2022.40;;;;;;5053361;28;20055;-81
2021/01/06 00:13:45;;;;;;;97.78;45.47;;;179.40;1996.80;;;;;;5053546;28;20055;-82
2021/01/06 00:16:11;;;;;;;159.43;60.13;;;179.40;1996.80;;;;;;5052366;28;20021;-85
2021/01/06 00:18:37;;;;;;;223.10;79.97;;;179.50;1996.80;;;;;;5054266;28;20021;-83
2021/01/06 00:21:03;;;;;;;134.13;51.47;;;179.50;2022.40;;;;;;5053051;28;20495;-82
2021/01/06 00:23:29;;;;;;;137.30;56.10;;;179.50;1996.80;;;;;;5051600;28;20044;-80
2021/01/06 00:25:55;;;;;;;100.13;40.78;;;179.60;1996.80;;;;;;5053081;28;20025;-83
2021/01/06 00:28:22;;;;;;;74.78;30.67;;;179.60;1996.80;;;;;;5068650;28;20059;-84
2021/01/06 00:30:54;;;;;;;43.22;24.13;;;179.70;1996.80;;;;;;5052829;28;20102;-88
2021/01/06 00:33:23;;;;;;;44.72;23.75;;;179.70;1996.80;;;;;;5052413;28;20017;-87
2021/01/06 00:35:51;;;;;;;363.23;227.57;;;179.70;1996.80;;;;;;5053347;28;20048;-88
2021/01/06 00:38:17;;;;;;;82.13;45.35;;;179.70;1996.80;;;;;;5060069;28;20045;-87
2021/01/06 00:40:44;;;;;;;47.63;29.83;;;179.70;1996.80;;;;;;5056693;28;20032;-87
2021/01/06 00:43:12;;;;;;;43.72;25.75;;;179.80;1971.20;;;;;;5057083;28;20468;-88
2021/01/06 00:45:38;;;;;;;11.20;6.78;;;179.90;1945.60;;;;;;5056580;28;20032;-88
2021/01/06 00:48:05;;;;;;;25.45;14.32;;;180.00;1920.00;;;;;;5056747;28;20369;-88
2021/01/06 00:50:31;;;;;;;13.80;6.80;;;180.10;1920.00;;;;;;5056673;28;20031;-88
2021/01/06 00:53:02;;;;;;;17.67;10.23;;;180.10;1894.40;;;;;;5056903;28;20028;-88
2021/01/06 00:55:28;;;;;;;15.25;9.73;;;180.10;1920.00;;;;;;5056926;28;20519;-88
2021/01/06 00:57:55;;;;;;;14.50;8.95;;;180.10;1920.00;;;;;;5056735;28;20063;-88
2021/01/06 01:00:23;;;;;;;12.63;7.78;;;180.10;1920.00;;;;;;5056451;28;20452;-88
2021/01/06 01:02:50;;;;;;;14.25;7.70;;;180.00;1945.60;;;;;;5055995;28;20032;-87
2021/01/06 01:05:22;;;;;;;15.52;7.88;;;180.00;1971.20;;;;;;5056543;28;20028;-88
2021/01/06 01:07:48;;;;;;;13.77;7.97;;;179.90;1971.20;;;;;;5056471;28;20411;-88
2021/01/06 01:10:42;;;;;;;12.68;7.50;;;179.90;1971.20;;;;;;5056803;28;20047;-88
2021/01/06 01:13:14;;;;;;;15.68;8.38;;;179.90;1971.20;;;;;;5056856;28;20050;-88
2021/01/06 01:15:42;;;;;;;15.55;10.25;;;179.90;1971.20;;;;;;5056638;28;20457;-87
2021/01/06 01:18:12;;;;;;;15.27;9.13;;;179.90;1971.20;;;;;;5056341;28;20081;-87
2021/01/06 01:21:04;;;;;;;13.13;7.65;;;179.90;1971.20;;;;;;5073231;28;20025;-87
2021/01/06 01:23:30;;;;;;;14.88;8.13;;;179.80;1971.20;;;;;;5070280;28;20442;-87
2021/01/06 01:25:57;;;;;;;27.25;16.20;;;179.70;1971.20;;;;;;5056592;28;20069;-87
2021/01/06 01:28:24;;;;;;;28.05;16.63;;;179.30;1920.00;;;;;;5056339;28;20479;-87
2021/01/06 01:30:51;;;;;;;27.25;16.67;;;154.00;1971.20;;;;;;5056137;28;20033;-87
2021/01/06 01:33:21;;;;;;;24.67;17.58;;;153.80;2022.40;;;;;;5056382;28;20051;-88
2021/01/06 01:35:47;;;;;;;31.58;21.38;;;153.80;2022.40;;;;;;5056043;28;20185;-88
2021/01/06 01:38:16;;;;;;;38.05;22.10;;;153.80;2022.40;;;;;;5055941;28;20555;-87
2021/01/06 01:40:42;;;;;;;52.38;28.52;;;153.70;2022.40;;;;;;5055747;28;20027;-87
2021/01/06 01:43:18;;;;;;;50.67;29.80;;;153.60;2048.00;;;;;;5056197;28;20041;-87
2021/01/06 01:45:50;;;;;;;62.72;34.25;;;153.60;2048.00;;;;;;5055307;28;20452;-87
2021/01/06 01:48:42;;;;;;;87.60;47.77;;;153.70;2073.60;;;;;;5055965;28;20024;-88
2021/01/06 01:51:30;;;;;;;114.35;60.30;;;153.80;2073.60;;;;;;5055636;28;20025;-88
2021/01/06 01:54:24;;;;;;;96.10;48.65;;;153.80;2073.60;;;;;;5056182;28;20029;-88
2021/01/06 01:57:00;;;;;;;96.72;47.40;;;154.00;2073.60;;;;;;5069147;28;20048;-87
2021/01/06 01:59:32;;;;;;;106.78;50.65;;;154.20;2073.60;;;;;;5069419;28;20033;-86
2021/01/06 02:02:03;;;;;;;86.80;44.15;;;154.30;2048.00;;;;;;5072910;28;20029;-87
2021/01/06 02:04:39;;;;;;;70.53;37.80;;;154.40;2048.00;;;;;;5055518;28;20040;-87
2021/01/06 02:07:29;;;;;;;62.08;36.42;;;154.30;2048.00;;;;;;5056241;28;20491;-87
2021/01/06 02:10:00;;;;;;;87.82;46.10;;;154.30;2048.00;;;;;;5055657;28;20060;-87
2021/01/06 02:12:50;;;;;;;90.13;49.25;;;154.40;2048.00;;;;;;5056390;28;20083;-87
2021/01/06 02:15:45;;;;;;;75.90;41.35;;;154.50;2048.00;;;;;;5057362;28;20029;-86
2021/01/06 02:18:12;;;;;;;64.15;36.10;;;179.20;2048.00;;;;;;5039940;28;20461;-87
2021/01/06 02:20:37;;;;;;;49.40;28.83;;;179.40;2022.40;;;;;;5055385;28;20025;-85
2021/01/06 02:23:03;;;;;;;42.60;22.52;;;179.50;2022.40;;;;;;5038939;28;20086;-87
2021/01/06 02:25:30;;;;;;;28.40;17.92;;;179.50;1971.20;;;;;;5039963;28;20064;-87
2021/01/06 02:27:58;;;;;;;20.02;12.43;;;179.70;1945.60;;;;;;5056045;28;20457;-86
2021/01/06 02:30:26;;;;;;;16.73;11.18;;;179.70;1920.00;;;;;;5055821;28;20154;-86
2021/01/06 02:32:52;;;;;;;14.82;8.85;;;179.90;1920.00;;;;;;5055784;28;20131;-87
2021/01/06 02:35:20;;;;;;;12.80;8.18;;;180.10;1868.80;;;;;;5039186;28;20025;-86
2021/01/06 02:37:47;;;;;;;16.90;7.03;;;204.80;1843.20;;;;;;5038498;28;20025;-86
2021/01/06 02:40:15;;;;;;;13.27;6.65;;;205.10;1843.20;;;;;;5039869;28;20098;-87
2021/01/06 02:42:41;;;;;;;10.05;5.25;;;205.20;1817.60;;;;;;5039028;28;20063;-87
2021/01/06 02:45:14;;;;;;;11.95;6.30;;;205.40;1792.00;;;;;;5038876;28;20029;-87
2021/01/06 02:47:42;;;;;;;12.32;5.32;;;205.40;1792.00;;;;;;5039254;28;20476;-87
2021/01/06 02:50:12;;;;;;;17.77;8.63;;;205.50;1766.40;;;;;;5039068;28;20120;-86
2021/01/06 02:53:00;;;;;;;9.43;5.95;;;205.60;1766.40;;;;;;5038777;28;20120;-86
2021/01/06 02:55:29;;;;;;;7.22;3.58;;;205.70;1740.80;;;;;;5039231;28;20025;-86
2021/01/06 02:57:57;;;;;;;10.20;4.22;;;205.70;1740.80;;;;;;5038587;28;20025;-86
2021/01/06 03:00:26;;;;;;;7.75;4.43;;;230.40;1715.20;;;;;;5038624;28;20076;-86
2021/01/06 03:02:53;;;;;;;8.10;5.07;;;230.40;1715.20;;;;;;5038685;28;20058;-86
2021/01/06 03:05:41;;;;;;;8.90;3.88;;;230.40;1715.20;;;;;;5038110;28;20033;-86
2021/01/06 03:08:13;;;;;;;13.32;9.43;;;230.50;1689.60;;;;;;5054000;28;20120;-86
2021/01/06 03:10:39;;;;;;;14.50;10.35;;;230.60;1689.60;;;;;;5056072;28;20029;-86
2021/01/06 03:13:05;;;;;;;8.98;5.72;;;230.60;1689.60;;;;;;5038144;28;20112;-86
2021/01/06 03:15:31;;;;;;;9.82;5.13;;;230.60;1715.20;;;;;;5038508;28;20037;-86
2021/01/06 03:17:58;;;;;;;6.05;3.30;;;230.90;1715.20;;;;;;5038372;28;20036;-86
2021/01/06 03:20:27;;;;;;;6.20;3.58;;;231.20;1689.60;;;;;;5038231;28;20025;-86
2021/01/06 03:23:06;;;;;;;9.18;3.63;;;230.60;1689.60;;;;;;5037483;28;20071;-85
2021/01/06 03:25:32;;;;;;;5.20;3.20;;;230.60;1689.60;;;;;;5057088;28;20036;-85
2021/01/06 03:27:59;;;;;;;6.65;4.10;;;230.60;1689.60;;;;;;5056221;28;20029;-86
2021/01/06 03:30:28;;;;;;;5.18;3.65;;;230.60;1689.60;;;;;;5057914;28;20361;-86
2021/01/06 03:33:14;;;;;;;4.63;3.25;;;230.60;1689.60;;;;;;5056954;28;20028;-86
2021/01/06 03:35:57;;;;;;;6.82;3.58;;;230.70;1689.60;;;;;;5058328;28;20353;-86
2021/01/06 03:38:33;;;;;;;8.57;3.58;;;230.70;1664.00;;;;;;5057758;28;20052;-86
2021/01/06 03:41:00;;;;;;;4.80;2.70;;;230.70;1664.00;;;;;;5057945;28;20024;-86
2021/01/06 03:43:29;;;;;;;10.45;5.57;;;230.70;1664.00;;;;;;5074421;28;20028;-86
2021/01/06 03:46:18;;;;;;;8.77;5.55;;;230.70;1664.00;;;;;;5057604;28;20025;-86
2021/01/06 03:49:07;;;;;;;9.98;4.82;;;230.70;1664.00;;;;;;5056842;28;20495;-86
2021/01/06 03:51:44;;;;;;;6.97;4.50;;;230.80;1638.40;;;;;;5057839;28;20056;-86
2021/01/06 03:54:57;;;;;;;7.25;3.75;;;230.80;1664.00;;;;;;5057480;28;20115;-86
2021/01/06 03:57:25;;;;;;;7.20;4.20;;;230.80;1664.00;;;;;;5049237;28;20051;-86
2021/01/06 03:59:52;;;;;;;6.65;4.13;;;230.80;1664.00;;;;;;5057373;28;20112;-86
2021/01/06 04:02:31;;;;;;;6.22;3.85;;;230.80;1638.40;;;;;;5057353;28;20021;-86
2021/01/06 04:05:08;;;;;;;10.93;7.00;;;230.80;1664.00;;;;;;5057590;28;20055;-86
2021/01/06 04:07:38;;;;;;;7.85;3.42;;;230.80;1638.40;;;;;;5057233;28;20055;-86
2021/01/06 04:10:24;;;;;;;11.82;7.03;;;230.90;1638.40;;;;;;5057206;28;20032;-86
2021/01/06 04:12:50;;;;;;;7.50;4.05;;;230.80;1638.40;;;;;;5057362;28;20120;-86
2021/01/06 04:15:17;;;;;;;8.30;4.57;;;230.90;1638.40;;;;;;5056844;28;20024;-85
2021/01/06 04:17:49;;;;;;;16.33;11.00;;;230.90;1638.40;;;;;;5057138;28;20028;-86
2021/01/06 04:20:15;;;;;;;7.73;3.67;;;230.90;1638.40;;;;;;5057231;28;20029;-86
2021/01/06 04:22:48;;;;;;;4.97;3.45;;;230.90;1638.40;;;;;;5056741;28;20281;-86
2021/01/06 04:25:30;;;;;;;8.27;5.07;;;230.90;1638.40;;;;;;5056854;28;20020;-86
2021/01/06 04:28:02;;;;;;;7.28;4.55;;;230.90;1638.40;;;;;;5057655;28;20056;-86
2021/01/06 04:30:36;;;;;;;6.50;3.10;;;230.90;1638.40;;;;;;5055783;28;20413;-86
2021/01/06 04:33:08;;;;;;;6.47;3.63;;;230.90;1638.40;;;;;;5056685;28;20035;-84
2021/01/06 04:35:34;;;;;;;7.43;3.70;;;230.90;1638.40;;;;;;5056302;28;20476;-84
2021/01/06 04:38:01;;;;;;;6.55;3.13;;;230.90;1664.00;;;;;;5056281;28;20048;-84
2021/01/06 04:40:40;;;;;;;5.18;3.33;;;230.90;1638.40;;;;;;5057488;28;20452;-85
2021/01/06 04:43:32;;;;;;;7.68;4.22;;;230.90;1612.80;;;;;;5056424;28;20040;-85
2021/01/06 04:46:21;;;;;;;10.43;4.60;;;230.90;1638.40;;;;;;5049624;28;20154;-86
2021/01/06 04:49:03;;;;;;;8.57;4.63;;;230.90;1638.40;;;;;;5027693;28;20388;-85
2021/01/06 04:51:44;;;;;;;10.38;4.82;;;230.90;1664.00;;;;;;5074279;28;20036;-85
2021/01/06 04:54:43;;;;;;;6.10;3.22;;;230.90;1638.40;;;;;;5056598;28;20032;-85
2021/01/06 04:57:37;;;;;;;8.10;4.93;;;230.90;1638.40;;;;;;5055880;28;20161;-85
2021/01/06 05:00:21;;;;;;;16.48;10.02;;;230.90;1638.40;;;;;;5056400;28;20533;-83
2021/01/06 05:03:24;;;;;;;52.22;29.40;;;230.90;1638.40;;;;;;5055512;28;20028;-85
2021/01/06 05:06:09;;;;;;;15.32;8.80;;;230.90;1664.00;;;;;;5056299;28;20025;-85
2021/01/06 05:08:41;;;;;;;7.75;5.25;;;230.90;1638.40;;;;;;5056376;28;20024;-85
2021/01/06 05:11:10;;;;;;;9.30;6.83;;;230.80;1638.40;;;;;;5056817;28;20024;-86
2021/01/06 05:13:43;;;;;;;6.75;4.22;;;230.90;1664.00;;;;;;5056380;28;20105;-85
2021/01/06 05:16:24;;;;;;;7.57;6.47;;;230.90;1638.40;;;;;;5056746;28;20449;-85
2021/01/06 05:18:50;;;;;;;11.75;9.95;;;230.90;1664.00;;;;;;5056255;28;20036;-86
2021/01/06 05:21:20;;;;;;;10.23;8.80;;;230.90;1664.00;;;;;;5056898;28;20025;-84
2021/01/06 05:23:49;;;;;;;8.10;7.25;;;230.90;1638.40;;;;;;5056251;28;20499;-87
2021/01/06 05:26:15;;;;;;;18.20;15.85;;;230.90;1638.40;;;;;;5055778;28;20024;-85
2021/01/06 05:28:44;;;;;;;10.88;7.57;;;230.90;1638.40;;;;;;5055200;28;20035;-86
2021/01/06 05:31:10;;;;;;;11.23;6.82;;;230.90;1664.00;;;;;;5055897;28;20051;-85
2021/01/06 05:33:41;;;;;;;11.50;7.47;;;230.90;1664.00;;;;;;5072322;28;20032;-87
2021/01/06 05:36:13;;;;;;;5.45;3.60;;;230.80;1664.00;;;;;;5056803;28;20034;-85
2021/01/06 05:38:39;;;;;;;8.93;3.92;;;230.80;1664.00;;;;;;5052653;28;20057;-88
2021/01/06 05:41:05;;;;;;;8.88;3.72;;;230.80;1664.00;;;;;;5052863;28;20032;-86
2021/01/06 05:43:31;;;;;;;6.35;3.67;;;230.80;1664.00;;;;;;5052562;28;20082;-87
2021/01/06 05:46:07;;;;;;;5.63;3.30;;;230.80;1664.00;;;;;;5052671;28;20028;-85
2021/01/06 05:48:52;;;;;;;6.88;3.75;;;230.80;1638.40;;;;;;5052763;28;20036;-86
2021/01/06 05:51:31;;;;;;;11.27;5.80;;;230.90;1664.00;;;;;;5056946;28;20060;-86
2021/01/06 05:54:20;;;;;;;19.27;9.73;;;230.80;1664.00;;;;;;5056791;28;20067;-87
2021/01/06 05:56:52;;;;;;;19.52;12.63;;;230.90;1638.40;;;;;;5056558;28;20500;-85
2021/01/06 05:59:42;;;;;;;21.15;12.00;;;230.90;1638.40;;;;;;5056471;28;20104;-85
2021/01/06 06:02:09;;;;;;;28.80;16.90;;;230.90;1664.00;;;;;;5055151;28;20072;-86
2021/01/06 06:04:53;;;;;;;86.07;45.53;;;230.80;1664.00;;;;;;5056371;28;20106;-85
2021/01/06 06:07:35;;;;;;;73.38;45.63;;;230.80;1664.00;;;;;;5055521;28;20082;-86
2021/01/06 06:10:28;;;;;;;60.92;35.42;;;230.80;1664.00;;;;;;5073557;28;20025;-86
2021/01/06 06:13:35;;;;;;;27.65;18.15;;;230.80;1664.00;;;;;;5056361;28;20124;-86
2021/01/06 06:16:27;;;;;;;29.63;20.90;;;230.80;1689.60;;;;;;5073510;28;20075;-86
2021/01/06 06:19:30;;;;;;;23.08;16.77;;;230.80;1689.60;;;;;;5025686;28;20064;-86
2021/01/06 06:22:04;;;;;;;36.25;24.73;;;230.80;1664.00;;;;;;5055761;28;20036;-85
2021/01/06 06:24:40;;;;;;;38.58;27.27;;;230.80;1689.60;;;;;;5072552;28;20032;-85
2021/01/06 06:27:39;;;;;;;28.08;21.08;;;230.80;1689.60;;;;;;5072460;28;20351;-86
2021/01/06 06:30:11;;;;;;;21.52;16.42;;;230.90;1664.00;;;;;;5056397;28;20552;-86
2021/01/06 06:32:39;;;;;;;30.00;22.35;;;230.90;1664.00;;;;;;5055550;28;20029;-85
2021/01/06 06:35:17;;;;;;;26.33;18.15;;;230.90;1664.00;;;;;;5055524;28;20021;-86
2021/01/06 06:37:53;;;;;;;26.77;20.40;;;230.90;1638.40;;;;;;5056876;28;20048;-86
2021/01/06 06:40:20;;;;;;;22.95;17.40;;;231.00;1638.40;;;;;;5059665;28;20130;-86
2021/01/06 06:42:56;;;;;;;14.98;11.43;;;231.00;1638.40;;;;;;5058674;28;20158;-85
2021/01/06 06:45:43;;;;;;;10.43;6.35;;;231.00;1638.40;;;;;;5059171;28;20066;-85
2021/01/06 06:48:48;;;;;;;14.38;11.10;;;231.00;1638.40;;;;;;5058884;28;20052;-86
2021/01/06 06:51:32;;;;;;;11.75;6.20;;;231.00;1638.40;;;;;;5059488;28;20044;-86
2021/01/06 06:54:14;;;;;;;11.45;8.15;;;231.00;1638.40;;;;;;5058719;28;20032;-86
2021/01/06 06:57:28;;;;;;;8.65;5.63;;;231.00;1638.40;;;;;;5058896;28;20029;-86
2021/01/06 07:00:14;;;;;;;17.80;12.70;;;231.00;1638.40;;;;;;5045513;28;20025;-86
2021/01/06 07:03:01;;;;;;;11.57;7.53;;;231.10;1638.40;;;;;;5064240;28;20072;-86
2021/01/06 07:05:47;;;;;;;47.05;30.25;;;231.10;1638.40;;;;;;5059334;28;20028;-86
2021/01/06 07:08:43;;;;;;;25.30;17.58;;;231.10;1638.40;;;;;;5058964;28;20495;-88
2021/01/06 07:11:26;;;;;;;38.80;24.83;;;231.20;1638.40;;;;;;5073135;28;20064;-86
2021/01/06 07:14:29;;;;;;;34.17;25.30;;;231.20;1638.40;;;;;;5058708;28;20032;-88
2021/01/06 07:17:10;;;;;;;16.00;10.95;;;231.20;1638.40;;;;;;5058454;28;20031;-87
2021/01/06 07:19:48;;;;;;;16.60;11.10;;;231.20;1638.40;;;;;;5057756;28;20082;-85
2021/01/06 07:22:23;;;;;;;22.40;14.23;;;231.20;1638.40;;;;;;5058010;28;20078;-87
2021/01/06 07:25:20;;;;;;;20.95;13.32;;;231.20;1638.40;;;;;;5073456;28;20031;-91
2021/01/06 07:27:56;;;;;;;25.35;16.92;;;231.30;1638.40;;;;;;5054737;28;20496;-88
2021/01/06 07:30:48;;;;;;;37.25;21.88;;;231.30;1638.40;;;;;;5054312;28;20056;-89
2021/01/06 07:33:29;;;;;;;16.73;11.60;;;256.00;1612.80;;;;;;5057296;28;20056;-87
2021/01/06 07:36:07;;;;;;;11.68;8.98;;;256.10;1612.80;;;;;;5068557;28;20031;-87
2021/01/06 07:38:34;;;;;;;9.48;7.05;;;256.10;1612.80;;;;;;5053210;28;20068;-87
2021/01/06 07:41:00;;;;;;;31.40;20.85;;;256.20;1612.80;;;;;;5053800;28;20028;-86
2021/01/06 07:43:31;;;;;;;10.85;7.93;;;256.20;1587.20;;;;;;5068674;28;20060;-86
2021/01/06 07:46:00;;;;;;;15.57;9.60;;;256.30;1612.80;;;;;;5041496;28;20104;-85
2021/01/06 07:48:43;;;;;;;10.55;6.78;;;256.40;1587.20;;;;;;5049709;28;20029;-87
2021/01/06 07:51:30;;;;;;;10.10;5.70;;;256.40;1587.20;;;;;;5043301;28;20021;-84
2021/01/06 07:54:26;;;;;;;14.20;10.00;;;256.50;1587.20;;;;;;4744890;28;513655;-86
2021/01/06 07:57:03;;;;;;;16.58;12.25;;;256.50;1561.60;;;;;;5009145;28;20018;-84
2021/01/06 07:59:48;;;;;;;29.20;15.88;;;256.50;1587.20;;;;;;5031565;28;20540;-84
2021/01/06 08:02:38;;;;;;;10.52;7.15;;;256.50;1587.20;;;;;;5030227;28;20029;-83
2021/01/06 08:05:27;;;;;;;11.38;7.93;;;256.60;1536.00;;;;;;5031666;28;20033;-84
2021/01/06 08:08:15;;;;;;;12.15;8.52;;;256.80;1561.60;;;;;;5032969;28;20052;-85
2021/01/06 08:10:46;;;;;;;6.55;3.60;;;256.80;1561.60;;;;;;5034258;28;20055;-84
2021/01/06 08:13:23;;;;;;;8.98;4.18;;;256.70;1536.00;;;;;;5033064;28;20025;-84
2021/01/06 08:16:06;;;;;;;7.75;4.88;;;256.80;1536.00;;;;;;5033871;28;20032;-83
2021/01/06 08:18:56;;;;;;;8.23;4.55;;;256.90;1561.60;;;;;;5034337;28;20465;-84
2021/01/06 08:21:28;;;;;;;14.07;11.70;;;256.90;1536.00;;;;;;5019307;28;20492;-85
2021/01/06 08:24:14;;;;;;;8.90;6.30;;;281.60;1561.60;;;;;;5033558;28;20029;-86
2021/01/06 08:26:59;;;;;;;10.48;6.97;;;256.90;1561.60;;;;;;5033428;28;20473;-84
2021/01/06 08:29:31;;;;;;;9.88;6.38;;;256.90;1561.60;;;;;;5034062;28;20072;-89
2021/01/06 08:32:02;;;;;;;8.77;5.68;;;256.80;1561.60;;;;;;5035268;28;20358;-87
2021/01/06 08:34:34;;;;;;;10.25;6.00;;;256.80;1561.60;;;;;;5034229;28;20033;-89
2021/01/06 08:37:05;;;;;;;8.67;5.57;;;256.80;1561.60;;;;;;5034007;28;20061;-86
2021/01/06 08:39:37;;;;;;;10.48;5.97;;;256.80;1561.60;;;;;;5034080;28;20340;-87
2021/01/06 08:42:10;;;;;;;11.85;5.97;;;256.80;1561.60;;;;;;5034118;28;20036;-87
2021/01/06 08:44:38;;;;;;;;;;;256.90;1561.60;;;;;;5035359;28;20079;-87
2021/01/06 08:47:07;;;;;;;6.90;4.65;;;256.90;1561.60;;;;;;5048768;28;19995;-87
2021/01/06 08:49:35;;;;;;;8.68;4.60;;;256.80;1561.60;;;;;;5033670;28;20113;-86
2021/01/06 08:52:16;;;;;;;11.38;5.03;;;256.90;1561.60;;;;;;5033483;28;20025;-87
2021/01/06 08:55:17;;;;;;;8.90;4.75;;;256.90;1536.00;;;;;;5033901;28;20021;-87
2021/01/06 08:57:43;;;;;;;7.05;4.80;;;256.90;1561.60;;;;;;5033564;28;20026;-87
2021/01/06 09:00:28;;;;;;;8.77;5.38;;;281.60;1587.20;;;;;;5033736;28;20052;-87
2021/01/06 09:03:10;;;;;;;11.60;6.93;;;281.60;1587.20;;;;;;5033753;28;20025;-86
2021/01/06 09:06:00;;;;;;;9.65;5.28;;;281.60;1587.20;;;;;;5032781;28;20080;-82
2021/01/06 09:08:32;;;;;;;12.98;4.22;;;281.70;1561.60;;;;;;5032689;28;20021;-81
2021/01/06 09:11:05;;;;;;;9.93;6.10;;;281.80;1587.20;;;;;;5031376;28;20072;-82
2021/01/06 09:13:43;;;;;;;12.30;7.05;;;281.90;1561.60;;;;;;5033292;28;20493;-79
2021/01/06 09:16:09;;;;;;;10.55;6.57;;;282.00;1561.60;;;;;;5031179;28;20037;-80
2021/01/06 09:18:43;;;;;;;21.50;16.27;;;282.10;1536.00;;;;;;5048556;28;20022;-80
2021/01/06 09:21:31;;;;;;;11.80;7.68;;;282.20;1561.60;;;;;;5031405;28;20112;-83
2021/01/06 09:24:20;;;;;;;8.57;5.50;;;282.30;1536.00;;;;;;5032888;28;20030;-84
2021/01/06 09:26:50;;;;;;;7.75;4.07;;;282.30;1510.40;;;;;;5036358;28;20544;-81
2021/01/06 09:29:19;;;;;;;8.50;5.25;;;282.30;1510.40;;;;;;5035550;28;20509;-83
2021/01/06 09:31:57;;;;;;;12.73;5.28;;;282.30;1484.80;;;;;;5035106;28;20025;-81
2021/01/06 09:34:58;;;;;;;10.35;6.28;;;282.30;1484.80;;;;;;5033840;28;20025;-79
2021/01/06 09:37:29;;;;;;;11.10;7.10;;;282.40;1510.40;;;;;;5015050;28;20033;-81
2021/01/06 09:40:01;;;;;;;12.27;5.90;;;282.40;1510.40;;;;;;5033789;28;20045;-81
2021/01/06 09:42:29;;;;;;;9.53;5.27;;;282.50;1484.80;;;;;;5035285;28;20096;-81
2021/01/06 09:44:55;;;;;;;6.10;3.75;;;282.50;1484.80;;;;;;5035023;28;20124;-82
2021/01/06 09:47:28;;;;;;;11.43;8.07;;;282.50;1459.20;;;;;;5036302;28;20120;-82
2021/01/06 09:49:58;;;;;;;8.48;5.20;;;282.50;1510.40;;;;;;5052677;28;20021;-82
2021/01/06 09:52:36;;;;;;;13.25;8.85;;;307.20;1484.80;;;;;;5036063;28;20036;-82
2021/01/06 09:55:05;;;;;;;9.07;6.10;;;307.30;1510.40;;;;;;5036159;28;20490;-81
2021/01/06 09:57:33;;;;;;;12.60;6.47;;;307.30;1484.80;;;;;;5035643;28;20168;-81
2021/01/06 10:00:29;;;;;;;11.63;7.22;;;307.30;1484.80;;;;;;5052644;28;20032;-81
2021/01/06 10:02:56;;;;;;;8.07;4.22;;;307.30;1510.40;;;;;;5034914;28;20115;-81
2021/01/06 10:05:51;;;;;;;10.15;5.00;;;307.40;1510.40;;;;;;5036163;28;20441;-81
2021/01/06 10:08:31;;;;;;;8.23;4.75;;;307.50;1510.40;;;;;;5035771;28;20063;-81
2021/01/06 10:11:30;;;;;;;17.17;9.50;;;307.60;1484.80;;;;;;5037550;28;20018;-81
2021/01/06 10:14:11;;;;;;;16.55;10.52;;;307.70;1459.20;;;;;;5052479;28;20158;-81
2021/01/06 10:16:48;;;;;;;12.77;6.70;;;307.90;1484.80;;;;;;5035965;28;20028;-81
2021/01/06 10:19:42;;;;;;;11.25;7.85;;;308.10;1459.20;;;;;;5035606;28;20025;-81
2021/01/06 10:23:03;;;;;;;12.43;5.68;;;332.90;1510.40;;;;;;5035825;28;20380;-81
2021/01/06 10:25:42;;;;;;;10.35;4.97;;;333.20;1459.20;;;;;;4995178;28;20493;-81
2021/01/06 10:28:33;;;;;;;8.15;4.32;;;333.20;1433.60;;;;;;5031809;28;20048;-80
2021/01/06 10:31:15;;;;;;;9.85;4.90;;;333.30;1433.60;;;;;;5036064;28;20041;-81
2021/01/06 10:34:11;;;;;;;8.63;4.85;;;333.20;1408.00;;;;;;5035113;28;20064;-81
2021/01/06 10:36:55;;;;;;;8.80;4.70;;;333.20;1433.60;;;;;;5047677;28;20037;-81
2021/01/06 10:39:26;;;;;;;23.08;8.25;;;333.20;1433.60;;;;;;5052238;28;20061;-81
2021/01/06 10:42:00;;;;;;;12.65;7.65;;;333.20;1433.60;;;;;;5036722;28;20029;-81
2021/01/06 10:44:29;;;;;;;13.68;6.85;;;333.20;1408.00;;;;;;5035275;28;20529;-81
2021/01/06 10:47:15;;;;;;;9.10;4.63;;;333.20;1408.00;;;;;;5034889;28;20037;-81
2021/01/06 10:49:52;;;;;;;9.68;6.78;;;333.20;1408.00;;;;;;5034989;28;20481;-81
2021/01/06 10:52:21;;;;;;;10.52;4.50;;;333.20;1408.00;;;;;;5036556;28;20029;-81
2021/01/06 10:54:52;;;;;;;9.20;3.55;;;333.30;1408.00;;;;;;5034621;28;20469;-81
2021/01/06 10:57:39;;;;;;;10.27;5.35;;;333.30;1382.40;;;;;;5051644;28;20029;-81
2021/01/06 11:00:14;;;;;;;7.78;5.00;;;333.40;1382.40;;;;;;5034949;28;20025;-81
2021/01/06 11:03:20;;;;;;;7.65;4.50;;;333.60;1382.40;;;;;;5034654;28;20029;-81
2021/01/06 11:05:52;;;;;;;6.68;3.92;;;333.70;1382.40;;;;;;5039639;28;20486;-81
2021/01/06 11:08:55;;;;;;;8.03;5.50;;;333.70;1382.40;;;;;;5051978;28;20362;-81
2021/01/06 11:11:30;;;;;;;26.10;13.85;;;333.70;1382.40;;;;;;5051458;28;20513;-81
2021/01/06 11:14:29;;;;;;;16.90;9.20;;;333.70;1382.40;;;;;;5035179;28;20037;-81
2021/01/06 11:17:18;;;;;;;10.73;4.82;;;333.60;1382.40;;;;;;5050955;28;20036;-81
2021/01/06 11:19:53;;;;;;;10.02;4.35;;;333.40;1408.00;;;;;;5051331;28;20029;-82
2021/01/06 11:22:42;;;;;;;11.60;8.48;;;333.20;1408.00;;;;;;5034186;28;20026;-82
2021/01/06 11:25:35;;;;;;;13.93;8.35;;;333.20;1382.40;;;;;;5034566;28;20128;-82
2021/01/06 11:28:04;;;;;;;10.52;5.75;;;333.30;1408.00;;;;;;5051070;28;20033;-81
2021/01/06 11:30:32;;;;;;;15.02;8.93;;;333.30;1382.40;;;;;;5050883;28;20099;-81
2021/01/06 11:33:27;;;;;;;14.98;8.25;;;333.20;1382.40;;;;;;5034259;28;20486;-81
2021/01/06 11:36:00;;;;;;;26.02;15.57;;;333.20;1408.00;;;;;;5034318;28;20029;-81
2021/01/06 11:38:38;;;;;;;17.08;12.88;;;333.10;1433.60;;;;;;5050674;28;20053;-82
2021/01/06 11:41:12;;;;;;;23.48;13.23;;;333.10;1408.00;;;;;;5034143;28;20030;-82
2021/01/06 11:44:00;;;;;;;20.42;12.25;;;332.90;1433.60;;;;;;5033910;28;20414;-82
2021/01/06 11:46:26;;;;;;;25.73;18.33;;;333.00;1433.60;;;;;;5034382;28;20029;-82
2021/01/06 11:49:16;;;;;;;18.35;11.15;;;332.90;1433.60;;;;;;5033659;28;20539;-83
2021/01/06 11:52:19;;;;;;;73.07;48.53;;;332.90;1433.60;;;;;;5033996;28;20032;-82
2021/01/06 11:54:55;;;;;;;28.08;16.08;;;332.80;1433.60;;;;;;5031799;28;20485;-82
2021/01/06 11:57:38;;;;;;;25.10;17.45;;;332.90;1433.60;;;;;;5034031;28;20508;-81
2021/01/06 12:00:26;;;;;;;31.38;18.88;;;332.80;1433.60;;;;;;5032647;28;20082;-81
2021/01/06 12:03:07;;;;;;;50.13;33.58;;;332.80;1433.60;;;;;;5034082;28;20034;-81
2021/01/06 12:05:36;;;;;;;31.40;21.90;;;332.90;1459.20;;;;;;5033669;28;20092;-80
2021/01/06 12:08:23;;;;;;;17.65;13.40;;;332.90;1433.60;;;;;;5033373;28;20025;-80
2021/01/06 12:11:12;;;;;;;20.48;15.20;;;333.10;1433.60;;;;;;5033644;28;20025;-83
2021/01/06 12:13:57;;;;;;;17.23;11.60;;;333.40;1408.00;;;;;;5033800;28;20092;-83
2021/01/06 12:16:39;;;;;;;19.05;15.95;;;333.70;1382.40;;;;;;5029396;28;20030;-80
2021/01/06 12:19:07;;;;;;;11.77;9.05;;;358.60;1356.80;;;;;;5030091;28;20064;-82
2021/01/06 12:21:33;;;;;;;19.48;12.27;;;358.50;1356.80;;;;;;5017528;28;20073;-84
2021/01/06 12:24:29;;;;;;;20.48;12.10;;;358.50;1356.80;;;;;;5028332;28;20743;-82
2021/01/06 12:27:04;;;;;;;13.60;8.25;;;358.40;1356.80;;;;;;5029639;28;20083;-82
2021/01/06 12:29:47;;;;;;;19.38;11.93;;;333.70;1382.40;;;;;;5043792;28;20469;-82
2021/01/06 12:32:32;;;;;;;11.75;7.55;;;358.40;1356.80;;;;;;5031146;28;20029;-83
2021/01/06 12:35:24;;;;;;;13.80;8.43;;;358.40;1356.80;;;;;;5027823;28;20045;-82
2021/01/06 12:38:14;;;;;;;16.42;9.45;;;358.40;1356.80;;;;;;5032870;28;20021;-82
2021/01/06 12:41:18;;;;;;;10.27;6.70;;;333.70;1382.40;;;;;;5048602;28;20033;-82
2021/01/06 12:43:59;;;;;;;15.65;8.38;;;333.60;1408.00;;;;;;5016621;28;20029;-82
2021/01/06 12:46:54;;;;;;;19.63;13.82;;;333.60;1382.40;;;;;;5032816;28;20029;-82
2021/01/06 12:49:23;;;;;;;14.85;8.30;;;333.50;1382.40;;;;;;5035585;28;20047;-82
2021/01/06 12:52:24;;;;;;;33.85;21.48;;;333.60;1382.40;;;;;;5036151;28;20554;-83
2021/01/06 12:55:28;;;;;;;34.53;24.48;;;358.40;1382.40;;;;;;5031939;28;20047;-82
2021/01/06 12:58:24;;;;;;;16.95;10.90;;;358.40;1382.40;;;;;;5043817;28;20246;-82
2021/01/06 13:01:17;;;;;;;13.07;6.10;;;358.40;1408.00;;;;;;5048540;28;20096;-82